createdAt,value
2019-03-13T00:02:32.435Z,37.50
2019-03-13T00:05:02.576Z,37.50
2019-03-13T00:07:32.703Z,37.60
2019-03-13T00:10:03.131Z,37.60
2019-03-13T00:12:34.440Z,37.60
2019-03-13T00:15:08.651Z,37.70
2019-03-13T00:17:38.796Z,37.70
2019-03-13T00:20:10.934Z,37.70
2019-03-13T00:22:41.046Z,37.60
2019-03-13T00:25:11.220Z,37.60
2019-03-13T00:27:41.355Z,37.70
2019-03-13T00:30:12.803Z,38.20
2019-03-13T00:32:42.946Z,37.80
2019-03-13T00:35:13.087Z,37.70
2019-03-13T00:37:43.215Z,37.70
2019-03-13T00:40:13.636Z,37.70
2019-03-13T00:42:43.765Z,37.70
2019-03-13T00:45:15.175Z,37.70
2019-03-13T00:47:45.885Z,37.70
2019-03-13T00:50:25.959Z,37.70
2019-03-13T00:52:56.136Z,37.70
2019-03-13T00:55:26.319Z,37.70
2019-03-13T00:57:56.454Z,37.70
2019-03-13T01:00:43.395Z,37.70
2019-03-13T01:03:33.452Z,37.80
2019-03-13T01:06:05.468Z,37.80
2019-03-13T01:08:35.609Z,37.80
2019-03-13T01:11:05.766Z,37.80
2019-03-13T01:13:35.943Z,37.80
2019-03-13T01:16:06.109Z,37.80
2019-03-13T01:18:36.240Z,37.80
2019-03-13T01:21:06.396Z,37.80
2019-03-13T01:23:36.592Z,38.40
2019-03-13T01:26:07.024Z,37.90
2019-03-13T01:28:37.149Z,38.00
2019-03-13T01:31:17.995Z,37.90
2019-03-13T01:33:48.135Z,37.90
2019-03-13T01:36:41.780Z,37.50
2019-03-13T01:39:11.889Z,38.00
2019-03-13T01:41:42.305Z,38.00
2019-03-13T01:44:12.434Z,37.90
2019-03-13T01:46:42.572Z,38.00
2019-03-13T01:49:12.720Z,38.00
2019-03-13T01:51:42.847Z,38.10
2019-03-13T01:54:12.967Z,38.00
2019-03-13T01:56:43.127Z,38.00
2019-03-13T01:59:13.255Z,37.60
2019-03-13T02:01:43.414Z,38.10
2019-03-13T02:04:13.556Z,38.00
2019-03-13T02:06:43.757Z,38.00
2019-03-13T02:09:14.150Z,38.40
2019-03-13T02:11:44.324Z,38.20
2019-03-13T02:14:14.537Z,38.00
2019-03-13T02:16:44.688Z,38.10
2019-03-13T02:19:14.887Z,38.10
2019-03-13T02:21:45.323Z,38.00
2019-03-13T02:24:15.517Z,38.10
2019-03-13T02:26:45.848Z,38.10
2019-03-13T02:29:16.259Z,38.60
2019-03-13T02:31:48.549Z,38.20
2019-03-13T02:34:18.743Z,38.10
2019-03-13T02:36:48.919Z,38.20
2019-03-13T02:39:20.129Z,38.20
2019-03-13T02:41:50.274Z,38.10
2019-03-13T02:44:21.043Z,38.10
2019-03-13T02:46:55.123Z,38.10
2019-03-13T02:49:25.252Z,38.10
2019-03-13T02:51:55.400Z,38.10
2019-03-13T02:54:25.534Z,38.10
2019-03-13T02:56:55.659Z,38.10
2019-03-13T02:59:25.802Z,38.20
2019-03-13T03:02:00.320Z,38.20
2019-03-13T03:04:31.036Z,38.20
2019-03-13T03:07:01.456Z,38.20
2019-03-13T03:09:31.695Z,38.20
2019-03-13T03:12:01.815Z,38.20
2019-03-13T03:14:31.959Z,38.20
2019-03-13T03:17:02.132Z,38.20
2019-03-13T03:19:32.273Z,38.20
2019-03-13T03:22:02.460Z,38.20
2019-03-13T03:24:32.546Z,38.20
2019-03-13T03:27:02.694Z,38.20
2019-03-13T03:29:32.830Z,38.20
2019-03-13T03:32:02.968Z,38.20
2019-03-13T03:34:33.104Z,38.30
2019-03-13T03:37:03.225Z,38.30
2019-03-13T03:39:33.371Z,38.30
2019-03-13T03:42:03.760Z,38.30
2019-03-13T03:44:38.258Z,38.30
2019-03-13T03:47:08.552Z,38.30
2019-03-13T03:49:38.709Z,38.20
2019-03-13T03:52:08.846Z,38.20
2019-03-13T03:54:39.011Z,38.20
2019-03-13T03:57:09.170Z,38.20
2019-03-13T03:59:39.343Z,38.20
2019-03-13T04:02:09.485Z,38.20
2019-03-13T04:04:39.640Z,38.20
2019-03-13T04:07:09.917Z,38.20
2019-03-13T04:09:40.138Z,38.20
2019-03-13T04:12:12.030Z,38.20
2019-03-13T04:14:42.198Z,38.20
2019-03-13T04:17:12.393Z,38.20
2019-03-13T04:19:42.532Z,38.20
2019-03-13T04:22:12.654Z,38.20
2019-03-13T04:24:42.811Z,38.20
2019-03-13T04:27:12.954Z,38.20
2019-03-13T04:29:43.089Z,38.20
2019-03-13T04:32:13.219Z,38.20
2019-03-13T04:34:43.379Z,38.20
2019-03-13T04:37:13.532Z,38.30
2019-03-13T04:39:43.679Z,38.30
2019-03-13T04:42:16.521Z,38.30
2019-03-13T04:44:46.658Z,38.30
2019-03-13T04:47:16.946Z,38.20
2019-03-13T04:49:47.165Z,38.40
2019-03-13T04:52:20.420Z,38.40
2019-03-13T04:54:51.110Z,38.30
2019-03-13T04:57:21.237Z,38.20
2019-03-13T04:59:51.372Z,38.30
2019-03-13T05:02:21.512Z,38.30
2019-03-13T05:04:51.651Z,38.30
2019-03-13T05:07:21.889Z,38.40
2019-03-13T05:09:52.038Z,38.40
2019-03-13T05:12:22.172Z,38.40
2019-03-13T05:14:55.200Z,38.30
2019-03-13T05:17:25.551Z,38.40
2019-03-13T05:19:56.866Z,38.50
2019-03-13T05:22:26.998Z,38.50
2019-03-13T05:24:58.229Z,38.50
2019-03-13T05:27:28.376Z,38.50
2019-03-13T05:29:58.523Z,38.50
2019-03-13T05:32:28.655Z,38.50
2019-03-13T05:34:59.912Z,38.50
2019-03-13T05:37:30.050Z,38.60
2019-03-13T05:40:00.491Z,38.50
2019-03-13T05:42:34.692Z,38.40
2019-03-13T05:45:08.532Z,39.00
2019-03-13T05:47:38.650Z,38.40
2019-03-13T05:50:11.568Z,38.50
2019-03-13T05:52:42.676Z,38.40
2019-03-13T05:55:12.861Z,38.40
2019-03-13T05:57:44.393Z,38.40
2019-03-13T06:00:16.564Z,38.90
2019-03-13T06:02:48.059Z,38.40
2019-03-13T06:05:18.396Z,38.40
2019-03-13T06:07:49.811Z,38.40
2019-03-13T06:10:20.033Z,38.40
2019-03-13T06:12:50.174Z,38.40
2019-03-13T06:15:21.811Z,38.40
2019-03-13T06:17:51.937Z,38.40
2019-03-13T06:20:22.141Z,38.40
2019-03-13T06:22:52.288Z,38.40
2019-03-13T06:25:22.442Z,38.30
2019-03-13T06:27:52.570Z,38.90
2019-03-13T06:30:23.140Z,38.30
2019-03-13T06:32:53.254Z,38.40
2019-03-13T06:35:24.000Z,38.30
2019-03-13T06:37:54.537Z,38.40
2019-03-13T06:40:24.731Z,38.40
2019-03-13T06:42:54.876Z,38.40
2019-03-13T06:45:25.133Z,38.40
2019-03-13T06:47:55.271Z,38.40
2019-03-13T06:50:26.343Z,38.40
2019-03-13T06:52:56.483Z,38.40
2019-03-13T06:55:26.656Z,38.50
2019-03-13T06:57:56.772Z,38.60
2019-03-13T07:00:37.171Z,38.70
2019-03-13T07:03:13.781Z,38.50
2019-03-13T07:06:03.846Z,38.60
2019-03-13T07:08:38.605Z,38.50
2019-03-13T07:11:22.014Z,38.50
2019-03-13T07:13:56.731Z,38.50
2019-03-13T07:16:40.502Z,38.50
2019-03-13T07:19:15.246Z,38.50
2019-03-13T07:21:50.000Z,38.50
2019-03-13T07:24:27.718Z,38.40
2019-03-13T07:27:01.614Z,38.20
2019-03-13T07:29:33.365Z,38.00
2019-03-13T07:32:21.782Z,37.90
2019-03-13T07:34:56.264Z,37.90
2019-03-13T07:37:33.738Z,37.80
2019-03-13T07:40:06.226Z,37.70
2019-03-13T07:42:38.015Z,37.50
2019-03-13T07:45:25.267Z,37.30
2019-03-13T07:47:57.389Z,37.20
2019-03-13T07:50:47.632Z,37.20
2019-03-13T07:53:37.941Z,37.30
2019-03-13T07:56:15.720Z,37.60
2019-03-13T07:59:00.677Z,37.60
2019-03-13T08:01:36.335Z,37.60
2019-03-13T08:04:12.172Z,37.50
2019-03-13T08:07:02.096Z,37.60
2019-03-13T08:09:38.293Z,37.90
2019-03-13T08:12:26.211Z,38.00
2019-03-13T08:15:16.115Z,38.40
2019-03-13T08:17:47.895Z,39.20
2019-03-13T08:20:27.297Z,39.30
2019-03-13T08:23:02.682Z,39.10
2019-03-13T08:25:51.044Z,39.20
2019-03-13T08:28:22.814Z,39.30
2019-03-13T08:31:00.522Z,39.40
2019-03-13T08:33:34.673Z,39.40
2019-03-13T08:36:21.504Z,39.60
2019-03-13T08:39:07.890Z,39.60
2019-03-13T08:41:44.212Z,39.70
2019-03-13T08:44:32.394Z,39.50
2019-03-13T08:47:19.107Z,39.70
2019-03-13T08:49:53.702Z,39.80
2019-03-13T08:52:42.118Z,39.80
2019-03-13T08:55:32.306Z,39.80
2019-03-13T08:58:20.912Z,39.70
2019-03-13T09:01:09.069Z,40.30
2019-03-13T09:03:57.005Z,39.90
2019-03-13T09:06:34.603Z,39.90
2019-03-13T09:09:08.026Z,39.90
2019-03-13T09:11:57.545Z,39.90
2019-03-13T09:14:42.003Z,40.60
2019-03-13T09:17:16.521Z,40.30
2019-03-13T09:20:09.507Z,39.90
2019-03-13T09:22:50.940Z,39.80
2019-03-13T09:25:32.509Z,39.70
2019-03-13T09:28:21.875Z,39.90
2019-03-13T09:31:02.940Z,39.90
2019-03-13T09:33:46.335Z,39.90
2019-03-13T09:36:19.591Z,39.90
2019-03-13T09:38:51.582Z,39.80
2019-03-13T09:41:29.138Z,39.70
2019-03-13T09:44:03.676Z,39.50
2019-03-13T09:46:44.528Z,37.10
2019-03-13T09:49:16.890Z,35.70
2019-03-13T09:51:50.823Z,35.00
2019-03-13T09:54:22.589Z,34.10
2019-03-13T09:56:57.405Z,34.10
2019-03-13T09:59:43.723Z,32.60
2019-03-13T10:02:20.168Z,31.50
2019-03-13T10:05:11.550Z,30.60
2019-03-13T10:07:43.527Z,30.40
2019-03-13T10:10:29.835Z,30.00
2019-03-13T10:13:19.650Z,29.50
2019-03-13T10:15:54.082Z,29.90
2019-03-13T10:18:34.640Z,30.70
2019-03-13T10:21:20.542Z,30.90
2019-03-13T10:23:52.330Z,31.40
2019-03-13T10:26:27.935Z,32.00
2019-03-13T10:28:59.852Z,32.50
2019-03-13T10:31:50.344Z,32.90
2019-03-13T10:34:22.131Z,33.20
2019-03-13T10:37:16.549Z,33.50
2019-03-13T10:40:06.319Z,33.70
2019-03-13T10:42:41.009Z,34.10
2019-03-13T10:45:21.768Z,34.30
2019-03-13T10:47:53.817Z,34.40
2019-03-13T10:50:34.656Z,35.00
2019-03-13T10:53:22.811Z,34.70
2019-03-13T10:56:06.976Z,34.90
2019-03-13T10:58:38.771Z,35.10
2019-03-13T11:01:16.295Z,35.30
2019-03-13T11:03:48.134Z,35.30
2019-03-13T11:06:24.511Z,35.40
2019-03-13T11:09:08.565Z,35.60
2019-03-13T11:11:58.672Z,35.60
2019-03-13T11:14:36.195Z,35.90
2019-03-13T11:17:13.883Z,36.00
2019-03-13T11:19:45.648Z,36.00
2019-03-13T11:22:20.139Z,35.80
2019-03-13T11:24:55.980Z,36.10
2019-03-13T11:27:36.646Z,36.20
2019-03-13T11:30:30.232Z,36.40
2019-03-13T11:33:18.320Z,36.80
2019-03-13T11:35:55.835Z,37.00
2019-03-13T11:38:44.078Z,37.00
2019-03-13T11:41:32.014Z,37.10
2019-03-13T11:44:03.818Z,37.30
2019-03-13T11:46:38.402Z,37.40
2019-03-13T11:49:26.634Z,37.40
2019-03-13T11:52:01.408Z,37.50
2019-03-13T11:54:45.421Z,37.60
2019-03-13T11:57:33.831Z,37.70
2019-03-13T12:00:07.799Z,37.70
2019-03-13T12:02:42.253Z,37.90
2019-03-13T12:05:26.955Z,37.90
2019-03-13T12:08:04.930Z,38.00
2019-03-13T12:10:39.385Z,38.10
2019-03-13T12:13:11.191Z,38.00
2019-03-13T12:15:51.912Z,38.00
2019-03-13T12:18:32.889Z,38.20
2019-03-13T12:21:13.506Z,38.10
2019-03-13T12:24:03.664Z,38.20
2019-03-13T12:26:36.499Z,38.40
2019-03-13T12:29:14.034Z,38.50
2019-03-13T12:31:45.827Z,38.60
2019-03-13T12:34:34.139Z,38.60
2019-03-13T12:37:14.903Z,38.60
2019-03-13T12:39:50.793Z,38.60
2019-03-13T12:42:28.490Z,38.70
2019-03-13T12:45:09.087Z,38.70
2019-03-13T12:47:46.848Z,38.70
2019-03-13T12:50:36.876Z,38.70
2019-03-13T12:53:17.631Z,38.70
2019-03-13T12:55:52.368Z,38.60
2019-03-13T12:58:24.166Z,38.60
2019-03-13T13:00:58.916Z,38.60
2019-03-13T13:03:46.624Z,38.70
2019-03-13T13:06:18.423Z,38.60
2019-03-13T13:08:52.615Z,38.70
2019-03-13T13:11:30.134Z,38.60
2019-03-13T13:14:04.813Z,38.60
2019-03-13T13:16:54.023Z,37.80
2019-03-13T13:19:24.146Z,38.40
2019-03-13T13:21:54.336Z,38.00
2019-03-13T13:24:24.487Z,37.90
2019-03-13T13:26:54.743Z,38.10
2019-03-13T13:29:24.938Z,38.30
2019-03-13T13:31:55.522Z,38.30
2019-03-13T13:34:25.916Z,38.40
2019-03-13T13:36:57.025Z,38.50
2019-03-13T13:39:27.534Z,38.70
2019-03-13T13:42:00.706Z,38.70
2019-03-13T13:44:31.986Z,38.80
2019-03-13T13:47:02.127Z,38.80
2019-03-13T13:49:32.265Z,38.80
2019-03-13T13:52:02.515Z,38.70
2019-03-13T13:54:32.648Z,38.70
2019-03-13T13:57:02.817Z,38.70
2019-03-13T13:59:32.966Z,38.80
2019-03-13T14:02:03.292Z,38.90
2019-03-13T14:04:33.482Z,38.80
2019-03-13T14:07:03.651Z,38.80
2019-03-13T14:09:33.788Z,38.90
2019-03-13T14:12:03.944Z,38.80
2019-03-13T14:14:34.076Z,38.90
2019-03-13T14:17:04.215Z,38.90
2019-03-13T14:19:34.361Z,38.90
2019-03-13T14:22:06.502Z,38.90
2019-03-13T14:24:36.443Z,38.90
2019-03-13T14:27:14.489Z,38.80
2019-03-13T14:29:38.576Z,38.90
2019-03-13T14:32:08.723Z,38.90
2019-03-13T14:34:38.983Z,38.80
2019-03-13T14:37:09.199Z,38.90
2019-03-13T14:39:39.368Z,39.00
2019-03-13T14:42:09.620Z,39.00
2019-03-13T14:44:39.745Z,38.90
2019-03-13T14:47:10.426Z,39.00
2019-03-13T14:49:40.648Z,38.80
2019-03-13T14:52:10.798Z,38.90
2019-03-13T14:54:40.954Z,38.80
2019-03-13T14:57:12.729Z,38.80
2019-03-13T14:59:44.197Z,38.90
2019-03-13T15:02:14.673Z,38.80
2019-03-13T15:04:44.808Z,38.80
2019-03-13T15:07:14.948Z,38.70
2019-03-13T15:09:45.107Z,38.80
2019-03-13T15:12:15.245Z,38.80
2019-03-13T15:14:45.386Z,38.70
2019-03-13T15:17:15.541Z,38.70
2019-03-13T15:19:45.674Z,38.70
2019-03-13T15:22:16.555Z,38.70
2019-03-13T15:24:46.829Z,38.70
2019-03-13T15:27:17.633Z,39.30
2019-03-13T15:29:47.726Z,38.70
2019-03-13T15:32:17.876Z,38.70
2019-03-13T15:34:48.036Z,38.70
2019-03-13T15:37:19.631Z,38.70
2019-03-13T15:39:49.745Z,38.70
2019-03-13T15:42:20.127Z,38.70
2019-03-13T15:44:51.289Z,38.70
2019-03-13T15:47:23.286Z,38.70
2019-03-13T15:49:53.428Z,38.80
2019-03-13T15:52:23.536Z,38.80
2019-03-13T15:54:53.688Z,38.80
2019-03-13T15:57:23.831Z,38.80
2019-03-13T15:59:54.059Z,38.80
2019-03-13T16:02:24.177Z,38.70
2019-03-13T16:04:54.315Z,38.80
2019-03-13T16:07:24.679Z,38.70
2019-03-13T16:09:54.954Z,38.80
2019-03-13T16:12:28.406Z,38.70
2019-03-13T16:14:58.521Z,38.80
2019-03-13T16:17:28.683Z,38.80
2019-03-13T16:19:58.842Z,38.70
2019-03-13T16:22:29.033Z,38.80
2019-03-13T16:24:59.194Z,38.80
2019-03-13T16:27:29.322Z,38.80
2019-03-13T16:29:59.507Z,38.90
2019-03-13T16:32:29.705Z,39.20
2019-03-13T16:34:59.839Z,39.30
2019-03-13T16:37:29.975Z,39.40
2019-03-13T16:40:01.764Z,39.40
2019-03-13T16:42:33.497Z,39.40
2019-03-13T16:45:09.455Z,39.30
2019-03-13T16:47:39.702Z,39.40
2019-03-13T16:50:17.155Z,39.40
2019-03-13T16:52:47.285Z,39.30
2019-03-13T16:55:19.749Z,39.40
2019-03-13T16:57:49.882Z,39.40
2019-03-13T17:00:33.006Z,39.50
2019-03-13T17:03:03.352Z,39.50
2019-03-13T17:05:33.489Z,39.50
2019-03-13T17:08:03.630Z,39.50
2019-03-13T17:10:34.253Z,39.50
2019-03-13T17:13:05.737Z,39.50
2019-03-13T17:15:36.278Z,39.50
2019-03-13T17:18:06.487Z,39.40
2019-03-13T17:20:39.514Z,39.50
2019-03-13T17:23:10.787Z,39.40
2019-03-13T17:25:40.999Z,39.20
2019-03-13T17:28:11.150Z,39.20
2019-03-13T17:30:41.528Z,39.30
2019-03-13T17:33:11.655Z,39.30
2019-03-13T17:35:41.828Z,39.20
2019-03-13T17:38:11.972Z,39.20
2019-03-13T17:40:42.180Z,39.10
2019-03-13T17:43:12.356Z,39.10
2019-03-13T17:45:42.506Z,39.10
2019-03-13T17:48:13.827Z,39.10
2019-03-13T17:50:44.926Z,39.10
2019-03-13T17:53:15.103Z,39.10
2019-03-13T17:55:45.255Z,39.10
2019-03-13T17:58:15.410Z,39.20
2019-03-13T18:00:53.210Z,39.30
2019-03-13T18:03:24.912Z,39.40
2019-03-13T18:05:55.127Z,39.40
2019-03-13T18:08:25.319Z,39.50
2019-03-13T18:10:55.454Z,39.50
2019-03-13T18:13:25.635Z,39.50
2019-03-13T18:15:56.777Z,39.50
2019-03-13T18:18:26.955Z,39.50
2019-03-13T18:20:57.107Z,39.60
2019-03-13T18:23:27.276Z,39.60
2019-03-13T18:25:57.461Z,40.10
2019-03-13T18:28:27.595Z,39.60
2019-03-13T18:30:57.738Z,39.60
2019-03-13T18:33:27.874Z,39.50
2019-03-13T18:35:58.020Z,39.50
2019-03-13T18:38:28.251Z,39.50
2019-03-13T18:40:58.435Z,39.50
2019-03-13T18:43:28.872Z,39.70
2019-03-13T18:45:59.028Z,39.70
2019-03-13T18:48:29.156Z,39.70
2019-03-13T18:50:59.560Z,39.70
2019-03-13T18:53:29.715Z,39.70
2019-03-13T18:55:59.852Z,40.30
2019-03-13T18:58:29.999Z,39.70
2019-03-13T19:01:00.346Z,39.70
2019-03-13T19:03:31.939Z,39.70
2019-03-13T19:06:02.096Z,39.80
2019-03-13T19:08:32.240Z,39.70
2019-03-13T19:11:03.148Z,39.80
2019-03-13T19:13:33.281Z,39.80
2019-03-13T19:16:04.427Z,39.80
2019-03-13T19:18:36.739Z,39.70
2019-03-13T19:21:06.955Z,39.80
2019-03-13T19:23:37.159Z,39.70
2019-03-13T19:26:07.673Z,39.70
2019-03-13T19:28:37.847Z,39.80
2019-03-13T19:31:09.149Z,39.80
2019-03-13T19:33:39.542Z,39.70
2019-03-13T19:36:09.757Z,40.30
2019-03-13T19:38:41.230Z,39.80
2019-03-13T19:41:11.667Z,39.80
2019-03-13T19:43:42.891Z,39.80
2019-03-13T19:46:13.061Z,39.40
2019-03-13T19:48:43.384Z,39.90
2019-03-13T19:51:14.167Z,39.80
2019-03-13T19:53:44.405Z,39.70
2019-03-13T19:56:15.449Z,39.70
2019-03-13T19:58:45.674Z,40.30
2019-03-13T20:01:15.865Z,39.70
2019-03-13T20:03:55.213Z,39.70
2019-03-13T20:06:17.874Z,39.80
2019-03-13T20:08:49.948Z,39.20
2019-03-13T20:11:20.084Z,39.70
2019-03-13T20:13:50.248Z,39.70
2019-03-13T20:16:20.464Z,39.70
2019-03-13T20:18:50.717Z,39.80
2019-03-13T20:21:20.874Z,40.40
2019-03-13T20:23:51.043Z,39.80
2019-03-13T20:26:21.201Z,39.80
2019-03-13T20:28:51.421Z,39.90
2019-03-13T20:31:22.578Z,39.80
2019-03-13T20:33:52.702Z,39.90
2019-03-13T20:36:22.876Z,39.80
2019-03-13T20:38:53.014Z,39.80
2019-03-13T20:41:26.287Z,39.80
2019-03-13T20:43:56.524Z,39.80
2019-03-13T20:46:26.756Z,39.80
2019-03-13T20:48:56.963Z,39.80
2019-03-13T20:51:27.116Z,39.80
2019-03-13T20:53:57.382Z,39.80
2019-03-13T20:56:27.694Z,39.80
2019-03-13T20:58:58.566Z,39.80
2019-03-13T21:01:29.011Z,39.80
2019-03-13T21:03:59.237Z,39.90
2019-03-13T21:06:29.825Z,39.80
2019-03-13T21:09:00.085Z,39.80
2019-03-13T21:11:32.035Z,39.80
2019-03-13T21:14:02.700Z,39.80
2019-03-13T21:16:33.083Z,39.90
2019-03-13T21:19:03.291Z,39.90
2019-03-13T21:21:33.583Z,39.90
2019-03-13T21:24:04.045Z,39.90
2019-03-13T21:26:34.252Z,39.80
2019-03-13T21:29:04.561Z,39.90
2019-03-13T21:31:34.910Z,39.90
2019-03-13T21:34:05.350Z,39.90
2019-03-13T21:36:35.602Z,39.90
2019-03-13T21:39:06.284Z,39.90
2019-03-13T21:41:37.946Z,39.80
2019-03-13T21:44:08.138Z,39.80
2019-03-13T21:46:38.496Z,39.80
2019-03-13T21:49:08.965Z,39.80
2019-03-13T21:51:40.282Z,39.90
2019-03-13T21:54:10.699Z,39.90
2019-03-13T21:56:40.964Z,39.80
2019-03-13T21:59:11.300Z,39.80
2019-03-13T22:01:41.562Z,39.90
2019-03-13T22:04:23.692Z,39.90
2019-03-13T22:06:43.841Z,39.90
2019-03-13T22:09:14.104Z,40.00
2019-03-13T22:11:44.455Z,39.90
2019-03-13T22:14:14.755Z,39.90
2019-03-13T22:16:47.651Z,39.90
2019-03-13T22:19:17.867Z,39.90
2019-03-13T22:21:48.014Z,40.00
2019-03-13T22:24:22.846Z,40.10
2019-03-13T22:26:53.129Z,40.10
2019-03-13T22:29:23.348Z,40.00
2019-03-13T22:31:53.497Z,40.00
2019-03-13T22:34:23.793Z,40.00
2019-03-13T22:36:54.011Z,40.00
2019-03-13T22:39:24.213Z,39.70
2019-03-13T22:41:54.515Z,40.00
2019-03-13T22:44:24.718Z,40.00
2019-03-13T22:46:55.049Z,40.00
2019-03-13T22:49:25.216Z,40.10
2019-03-13T22:51:55.393Z,40.00
2019-03-13T22:54:25.604Z,40.10
2019-03-13T22:56:55.873Z,40.10
2019-03-13T22:59:26.206Z,40.10
2019-03-13T23:01:56.348Z,40.10
2019-03-13T23:04:26.570Z,40.20
2019-03-13T23:06:57.792Z,40.20
2019-03-13T23:09:27.988Z,40.30
2019-03-13T23:11:58.181Z,40.40
2019-03-13T23:14:30.022Z,40.40
2019-03-13T23:17:00.254Z,40.40
2019-03-13T23:19:30.504Z,40.40
2019-03-13T23:22:01.038Z,40.40
2019-03-13T23:24:31.219Z,40.40
2019-03-13T23:27:01.994Z,40.40
2019-03-13T23:29:32.189Z,40.50
2019-03-13T23:32:02.452Z,40.40
2019-03-13T23:34:32.726Z,40.50
2019-03-13T23:37:02.902Z,40.50
2019-03-13T23:39:33.115Z,40.40
2019-03-13T23:42:03.325Z,40.60
2019-03-13T23:44:33.574Z,40.60
2019-03-13T23:47:03.903Z,40.60
2019-03-13T23:49:34.095Z,40.60
2019-03-13T23:52:04.383Z,40.60
2019-03-13T23:54:34.585Z,40.60
2019-03-13T23:57:04.801Z,40.70
2019-03-13T23:59:35.211Z,40.70
